Airport ID:KVUF
Update Time (UTC):07/05/2021 13:09
Wind Speed (Knots):11
Wind Direction (Magnetic):150
Temperature (°C):17
Dew Point (°C):12
Humidity (%):72
Altimeter (inHg):30.19
Density Altitude (Feet):
Visibility:10+
Clouds (Hundreds of feet):CLR
Present Weather:
METAR:METAR KVUF 071305Z AUTO 15009KT 10SM CLR 17/12 A3019 RMK A01

The data displayed is for advisory purposes only and is not to be used for flight planning or operations.